Time;durP1;ratioP1;P1;durP2;ratioP2;P2;SDS_P1;SDS_P2;PMS_P1;PMS_P2;Temp;Humidity;BMP_temperature;BMP_pressure;BME280_temperature;BME280_humidity;BME280_pressure;Samples;Min_cycle;Max_cycle;Signal;HPM_P1;HPM_P2
2022/06/27 00:00:31;;;;;;;9.25;6.07;;;18.10;99.90;;;;;;9177500;19;20042;-74
2022/06/27 00:03:41;;;;;;;9.45;6.30;;;17.90;99.90;;;;;;9178428;19;20019;-74
2022/06/27 00:06:45;;;;;;;9.88;6.90;;;18.10;99.90;;;;;;9184146;19;20015;-73
2022/06/27 00:09:49;;;;;;;8.73;6.75;;;18.00;99.90;;;;;;9178066;19;20082;-74
2022/06/27 00:12:53;;;;;;;10.68;7.30;;;18.00;99.90;;;;;;9178037;19;20357;-74
2022/06/27 00:15:57;;;;;;;15.48;8.40;;;18.00;99.90;;;;;;9178509;19;20022;-73
2022/06/27 00:19:04;;;;;;;9.10;7.63;;;17.80;99.90;;;;;;9177419;19;20019;-74
2022/06/27 00:22:08;;;;;;;13.05;8.02;;;18.00;99.90;;;;;;9174550;19;21066;-73
2022/06/27 00:25:15;;;;;;;11.10;7.70;;;17.90;99.90;;;;;;9176575;19;20010;-73
2022/06/27 00:28:20;;;;;;;10.95;7.35;;;18.00;99.90;;;;;;9177428;19;20006;-73
2022/06/27 00:31:23;;;;;;;9.93;8.18;;;17.70;99.90;;;;;;9178470;19;20039;-73
2022/06/27 00:34:30;;;;;;;10.20;7.90;;;17.80;99.90;;;;;;9178529;19;20007;-73
2022/06/27 00:37:34;;;;;;;12.85;8.50;;;18.10;99.90;;;;;;9180071;19;20677;-73
2022/06/27 00:40:38;;;;;;;9.32;7.90;;;17.90;99.90;;;;;;9176993;19;20010;-73
2022/06/27 00:43:45;;;;;;;12.15;8.95;;;18.00;99.90;;;;;;9175566;19;20347;-73
2022/06/27 00:46:49;;;;;;;12.07;9.13;;;17.70;99.90;;;;;;9180070;19;20010;-73
2022/06/27 00:49:56;;;;;;;10.85;8.57;;;17.80;99.90;;;;;;9180794;19;20451;-73
2022/06/27 00:53:00;;;;;;;10.32;8.52;;;17.90;99.90;;;;;;9176210;19;20042;-72
2022/06/27 00:56:04;;;;;;;11.10;8.35;;;17.80;99.90;;;;;;9178537;19;20479;-73
2022/06/27 00:59:08;;;;;;;13.18;9.30;;;17.80;99.90;;;;;;9180657;19;20038;-73
2022/06/27 01:02:12;;;;;;;11.63;8.27;;;17.80;99.90;;;;;;9189992;19;20022;-73
2022/06/27 01:05:19;;;;;;;10.85;8.15;;;17.70;99.90;;;;;;9184515;19;20014;-73
2022/06/27 01:08:25;;;;;;;11.93;7.78;;;17.70;99.90;;;;;;9189528;19;20487;-72
2022/06/27 01:11:29;;;;;;;10.60;8.02;;;17.50;99.90;;;;;;9186981;19;20017;-73
2022/06/27 01:14:33;;;;;;;10.90;8.40;;;17.70;99.90;;;;;;9190006;19;20102;-73
2022/06/27 01:17:38;;;;;;;9.38;7.57;;;17.60;99.90;;;;;;9186920;19;20090;-73
2022/06/27 01:20:48;;;;;;;10.20;7.68;;;17.50;99.90;;;;;;9189626;19;20369;-73
2022/06/27 01:23:55;;;;;;;12.27;8.40;;;17.60;99.90;;;;;;9184147;19;20014;-73
2022/06/27 01:26:58;;;;;;;;;;;17.50;99.90;;;;;;9186901;19;20015;-73
2022/06/27 01:30:04;;;;;;;11.18;8.40;;;17.60;99.90;;;;;;9186668;19;20386;-73
2022/06/27 01:33:08;;;;;;;10.95;8.13;;;17.40;99.90;;;;;;9187359;19;20407;-73
2022/06/27 01:39:31;;;;;;;10.05;8.32;;;17.40;99.90;;;;;;9185678;19;20014;-73
2022/06/27 01:42:37;;;;;;;10.07;7.60;;;17.50;99.90;;;;;;9184631;19;20014;-73
2022/06/27 01:45:41;;;;;;;13.88;8.30;;;17.60;99.90;;;;;;9183457;19;20538;-72
2022/06/27 01:48:45;;;;;;;10.23;7.97;;;17.20;99.90;;;;;;9188069;19;20043;-72
2022/06/27 01:51:51;;;;;;;12.40;8.13;;;17.30;99.90;;;;;;9185636;19;20029;-73
2022/06/27 01:54:57;;;;;;;12.27;7.95;;;17.20;99.90;;;;;;9184373;19;20007;-73
2022/06/27 01:58:01;;;;;;;10.23;8.27;;;17.20;99.90;;;;;;9185589;19;20014;-73
2022/06/27 02:01:06;;;;;;;10.10;7.85;;;17.30;99.90;;;;;;9186313;19;20019;-73
2022/06/27 02:04:10;;;;;;;9.75;7.35;;;17.00;99.90;;;;;;9185963;19;20014;-73
2022/06/27 02:07:15;;;;;;;11.50;7.90;;;17.30;99.90;;;;;;9193287;19;20368;-73
2022/06/27 02:10:21;;;;;;;9.93;6.90;;;17.20;99.90;;;;;;9189836;19;20018;-72
2022/06/27 02:13:26;;;;;;;9.73;6.85;;;17.20;99.90;;;;;;9187109;19;20011;-72
2022/06/27 02:16:30;;;;;;;10.57;6.95;;;17.20;99.90;;;;;;9184147;19;20022;-72
2022/06/27 02:19:34;;;;;;;8.32;6.53;;;17.50;99.90;;;;;;9186401;19;20051;-72
2022/06/27 02:22:38;;;;;;;9.55;6.93;;;17.20;99.90;;;;;;9182928;19;20018;-73
2022/06/27 02:25:45;;;;;;;10.55;7.40;;;17.20;99.90;;;;;;9179665;19;20493;-72
2022/06/27 02:28:50;;;;;;;10.75;6.88;;;17.10;99.90;;;;;;9185180;19;20024;-73
2022/06/27 02:31:54;;;;;;;8.43;6.40;;;17.20;99.90;;;;;;9184746;19;20018;-72
2022/06/27 02:34:59;;;;;;;7.95;5.88;;;17.20;99.90;;;;;;9183545;19;20147;-72
2022/06/27 02:38:04;;;;;;;8.25;6.30;;;17.10;99.90;;;;;;9181017;19;20017;-72
2022/06/27 02:41:15;;;;;;;9.27;6.70;;;17.20;99.90;;;;;;9182637;19;20018;-72
2022/06/27 02:44:26;;;;;;;10.45;6.78;;;17.10;99.90;;;;;;9179930;19;20396;-72
2022/06/27 02:47:33;;;;;;;8.90;6.80;;;17.20;99.90;;;;;;9183375;19;20014;-72
2022/06/27 02:50:41;;;;;;;8.45;6.70;;;17.00;99.90;;;;;;9184855;19;20039;-72
2022/06/27 02:54:00;;;;;;;9.88;6.50;;;17.00;99.90;;;;;;9185263;19;20022;-72
2022/06/27 02:57:11;;;;;;;9.20;6.40;;;17.10;99.90;;;;;;9185322;19;20044;-73
2022/06/27 03:00:16;;;;;;;7.93;6.45;;;17.00;99.90;;;;;;9183807;19;20082;-73
2022/06/27 03:03:20;;;;;;;7.82;6.40;;;17.20;99.90;;;;;;9182241;19;20022;-73
2022/06/27 03:06:25;;;;;;;8.27;6.32;;;17.00;99.90;;;;;;9182974;19;20051;-72
2022/06/27 03:09:29;;;;;;;9.05;6.00;;;16.90;99.90;;;;;;9182191;19;20018;-73
2022/06/27 03:12:36;;;;;;;8.65;7.07;;;17.10;99.90;;;;;;9182466;19;20475;-71
2022/06/27 03:15:40;;;;;;;8.93;6.78;;;17.00;99.90;;;;;;9180106;19;20519;-71
2022/06/27 03:18:44;;;;;;;8.63;6.97;;;16.80;99.90;;;;;;9181235;19;20078;-71
2022/06/27 03:21:48;;;;;;;9.00;7.35;;;17.00;99.90;;;;;;9182144;19;20494;-71
2022/06/27 03:24:53;;;;;;;9.95;7.63;;;17.20;99.90;;;;;;9182841;19;20049;-71
2022/06/27 03:28:00;;;;;;;11.73;7.85;;;17.10;99.90;;;;;;9180086;19;20515;-70
2022/06/27 03:31:04;;;;;;;9.57;6.95;;;17.00;99.90;;;;;;9182593;19;20021;-71
2022/06/27 03:34:08;;;;;;;9.80;6.88;;;16.90;99.90;;;;;;9181546;19;20042;-71
2022/06/27 03:37:11;;;;;;;10.68;7.45;;;16.80;99.90;;;;;;9180434;19;20011;-71
2022/06/27 03:40:15;;;;;;;9.43;6.63;;;16.90;99.90;;;;;;9178306;19;20021;-71
2022/06/27 03:43:22;;;;;;;8.15;6.30;;;16.90;99.90;;;;;;9180582;19;20010;-71
2022/06/27 03:46:26;;;;;;;7.60;5.88;;;17.00;99.90;;;;;;9178323;19;20066;-71
2022/06/27 03:52:46;;;;;;;8.18;5.75;;;17.00;99.90;;;;;;9183052;19;20018;-71
2022/06/27 03:55:50;;;;;;;9.48;6.03;;;16.90;99.90;;;;;;9181776;19;20015;-71
2022/06/27 03:58:56;;;;;;;7.00;5.80;;;16.70;99.90;;;;;;9182372;19;20010;-71
2022/06/27 04:02:00;;;;;;;5.70;4.90;;;16.80;99.90;;;;;;9181223;19;20021;-71
2022/06/27 04:05:04;;;;;;;5.65;4.93;;;16.70;99.90;;;;;;9179029;19;20527;-71
2022/06/27 04:08:09;;;;;;;6.43;5.28;;;16.70;99.90;;;;;;9180744;19;20006;-71
2022/06/27 04:11:13;;;;;;;7.95;5.60;;;16.60;99.90;;;;;;9176994;19;20014;-71
2022/06/27 04:14:19;;;;;;;7.20;5.80;;;16.60;99.90;;;;;;9179273;19;20365;-71
2022/06/27 04:17:23;;;;;;;7.80;5.43;;;16.60;99.90;;;;;;9180404;19;20022;-71
2022/06/27 04:20:27;;;;;;;8.13;5.72;;;16.70;99.90;;;;;;9181889;19;20015;-71
2022/06/27 04:23:31;;;;;;;7.25;5.90;;;16.70;99.90;;;;;;9178064;19;20602;-71
2022/06/27 04:26:36;;;;;;;6.68;5.63;;;16.60;99.90;;;;;;9175411;19;20015;-71
2022/06/27 04:29:42;;;;;;;6.57;5.30;;;16.70;99.90;;;;;;9181777;19;20507;-71
2022/06/27 04:32:48;;;;;;;6.47;5.25;;;16.70;99.90;;;;;;9179011;19;20557;-71
2022/06/27 04:35:52;;;;;;;6.25;5.25;;;16.80;99.90;;;;;;9186763;19;20022;-71
2022/06/27 04:38:56;;;;;;;6.30;4.78;;;16.90;99.90;;;;;;9188437;19;20018;-71
2022/06/27 04:42:00;;;;;;;6.60;5.05;;;16.70;99.90;;;;;;9187427;19;20551;-71
2022/06/27 04:45:09;;;;;;;5.82;4.85;;;16.70;99.90;;;;;;9183700;19;20014;-71
2022/06/27 04:48:14;;;;;;;6.13;5.22;;;16.80;99.90;;;;;;9185751;19;21026;-71
2022/06/27 04:51:18;;;;;;;7.20;5.32;;;16.80;99.90;;;;;;9191011;19;20026;-70
2022/06/27 04:54:22;;;;;;;7.60;5.28;;;16.60;99.90;;;;;;9182525;19;20021;-70
2022/06/27 04:57:27;;;;;;;7.05;4.68;;;16.50;99.90;;;;;;9189750;19;20022;-71
2022/06/27 05:00:33;;;;;;;5.72;4.85;;;16.70;99.90;;;;;;9186026;19;20029;-72
2022/06/27 05:03:37;;;;;;;6.15;4.97;;;16.70;99.90;;;;;;9188648;19;20026;-71
2022/06/27 05:06:41;;;;;;;5.78;5.18;;;16.60;99.90;;;;;;9185917;19;20010;-71
2022/06/27 05:09:45;;;;;;;7.03;4.95;;;16.70;99.90;;;;;;9185376;19;20007;-70
2022/06/27 05:12:49;;;;;;;7.55;5.13;;;16.70;99.90;;;;;;9185371;19;20124;-70
2022/06/27 05:15:55;;;;;;;6.53;4.80;;;16.70;99.90;;;;;;9185718;19;20014;-71
2022/06/27 05:18:59;;;;;;;5.57;4.65;;;16.70;99.90;;;;;;9184690;19;20090;-70
2022/06/27 05:22:03;;;;;;;5.80;4.90;;;16.70;99.90;;;;;;9184369;19;20019;-71
2022/06/27 05:25:08;;;;;;;5.65;4.55;;;16.90;99.90;;;;;;9187761;19;20010;-72
2022/06/27 05:28:13;;;;;;;15.55;4.70;;;16.70;99.90;;;;;;9184577;19;20475;-70
2022/06/27 05:31:19;;;;;;;6.32;4.78;;;16.80;99.90;;;;;;9181405;19;20355;-69
2022/06/27 05:34:23;;;;;;;6.22;4.90;;;16.80;99.90;;;;;;9185245;19;20018;-69
2022/06/27 05:37:27;;;;;;;7.97;5.57;;;16.80;99.90;;;;;;9187062;19;20007;-69
2022/06/27 05:40:33;;;;;;;6.45;5.10;;;16.80;99.90;;;;;;9187916;19;20023;-69
2022/06/27 05:43:38;;;;;;;8.52;5.85;;;16.70;99.90;;;;;;9181642;19;20034;-71
2022/06/27 05:46:45;;;;;;;6.28;5.47;;;16.80;99.90;;;;;;9181961;19;20570;-69
2022/06/27 05:49:49;;;;;;;;;;;17.00;99.90;;;;;;9183705;19;20027;-70
2022/06/27 05:52:53;;;;;;;6.88;5.43;;;16.90;99.90;;;;;;9184909;19;19926;-69
2022/06/27 05:55:57;;;;;;;6.95;6.05;;;16.90;99.90;;;;;;9184762;19;20018;-69
2022/06/27 05:59:02;;;;;;;9.73;5.25;;;16.70;99.90;;;;;;9186643;19;20467;-69
2022/06/27 06:02:08;;;;;;;5.70;5.07;;;17.00;99.90;;;;;;9184654;19;20369;-69
2022/06/27 06:05:13;;;;;;;6.65;4.95;;;16.80;99.90;;;;;;9173978;19;20022;-69
2022/06/27 06:08:17;;;;;;;7.13;5.88;;;16.70;99.90;;;;;;9173918;19;20018;-69
2022/06/27 06:11:21;;;;;;;7.25;5.40;;;16.80;99.90;;;;;;9186669;19;20026;-68
2022/06/27 06:14:26;;;;;;;8.82;5.40;;;16.70;99.90;;;;;;9187721;19;20367;-70
2022/06/27 06:17:36;;;;;;;7.22;5.50;;;16.80;99.90;;;;;;9182223;19;20011;-70
2022/06/27 06:20:40;;;;;;;8.98;5.63;;;16.70;99.90;;;;;;9173243;19;20007;-71
2022/06/27 06:23:43;;;;;;;6.60;5.30;;;16.70;99.90;;;;;;9183932;19;20022;-71
2022/06/27 06:26:52;;;;;;;5.38;4.45;;;16.70;99.90;;;;;;9178219;19;20022;-71
2022/06/27 06:29:56;;;;;;;4.72;4.10;;;16.90;99.90;;;;;;9185306;19;20043;-72
2022/06/27 06:33:05;;;;;;;5.53;4.55;;;16.70;99.90;;;;;;9185139;19;20018;-72
2022/06/27 06:36:09;;;;;;;4.70;4.13;;;16.80;99.90;;;;;;9183846;19;20023;-71
2022/06/27 06:39:14;;;;;;;5.72;4.53;;;16.70;99.90;;;;;;9184530;19;20010;-71
2022/06/27 06:42:18;;;;;;;6.03;4.40;;;16.70;99.90;;;;;;9184112;19;20340;-71
2022/06/27 06:45:23;;;;;;;5.63;4.40;;;16.90;99.90;;;;;;9182997;19;20013;-71
2022/06/27 06:48:30;;;;;;;5.53;4.45;;;16.80;99.90;;;;;;9185951;19;20101;-72
2022/06/27 06:51:36;;;;;;;4.93;4.22;;;16.70;99.90;;;;;;9182626;19;20022;-72
2022/06/27 06:54:41;;;;;;;6.03;4.10;;;16.90;99.90;;;;;;9181798;19;20463;-72
2022/06/27 06:57:46;;;;;;;6.05;4.35;;;16.90;99.90;;;;;;9179845;19;20380;-72
2022/06/27 07:00:50;;;;;;;5.88;4.50;;;16.70;99.90;;;;;;9182599;19;20435;-72
2022/06/27 07:03:58;;;;;;;7.75;4.53;;;16.80;99.90;;;;;;9185106;19;20018;-71
2022/06/27 07:07:02;;;;;;;7.18;4.80;;;16.90;99.90;;;;;;9180845;19;20011;-71
2022/06/27 07:10:08;;;;;;;6.15;4.50;;;16.80;99.90;;;;;;9182884;19;20052;-72
2022/06/27 07:13:12;;;;;;;6.95;5.20;;;16.80;99.90;;;;;;9180556;19;20011;-72
2022/06/27 07:16:16;;;;;;;5.82;5.22;;;16.70;99.90;;;;;;9181379;19;20018;-72
2022/06/27 07:19:22;;;;;;;7.07;4.82;;;16.90;99.90;;;;;;9183653;19;20018;-72
2022/06/27 07:22:28;;;;;;;6.95;5.05;;;16.80;99.90;;;;;;9181205;19;20086;-72
2022/06/27 07:25:33;;;;;;;6.90;5.18;;;16.90;99.90;;;;;;9181577;19;20476;-72
2022/06/27 07:28:37;;;;;;;7.88;4.95;;;16.90;99.90;;;;;;9184169;19;20017;-72
2022/06/27 07:31:42;;;;;;;5.85;4.90;;;17.00;99.90;;;;;;9181141;19;20018;-73
2022/06/27 07:34:48;;;;;;;5.70;5.10;;;17.00;99.90;;;;;;9179291;19;20010;-73
2022/06/27 07:37:52;;;;;;;6.03;5.43;;;15.20;99.90;;;;;;9179322;19;20022;-73
2022/06/27 07:40:56;;;;;;;7.97;5.82;;;16.90;99.90;;;;;;9178595;19;20475;-73
2022/06/27 07:44:03;;;;;;;8.63;5.50;;;16.80;99.90;;;;;;9181405;19;20018;-73
2022/06/27 07:47:07;;;;;;;7.88;6.63;;;16.70;99.90;;;;;;9176623;19;20021;-73
2022/06/27 07:50:36;;;;;;;8.95;7.65;;;16.70;99.90;;;;;;9179551;19;20026;-73
2022/06/27 07:53:39;;;;;;;8.45;6.43;;;16.70;99.90;;;;;;9182094;19;20014;-73
2022/06/27 07:56:43;;;;;;;9.38;7.97;;;16.80;99.90;;;;;;9178593;19;20103;-73
2022/06/27 07:59:47;;;;;;;9.32;7.65;;;16.80;99.90;;;;;;9178303;19;20019;-73
2022/06/27 08:02:51;;;;;;;8.40;7.40;;;16.60;99.90;;;;;;9183037;19;20374;-72
2022/06/27 08:05:58;;;;;;;10.25;7.32;;;16.70;99.90;;;;;;9177700;19;20082;-73
2022/06/27 08:09:03;;;;;;;;;;;16.70;99.90;;;;;;9176984;19;20014;-73
2022/06/27 08:12:08;;;;;;;8.50;6.60;;;16.70;99.90;;;;;;9178095;19;19926;-73
2022/06/27 08:15:12;;;;;;;8.98;6.63;;;16.50;99.90;;;;;;9179632;19;20022;-72
2022/06/27 08:18:16;;;;;;;10.80;6.85;;;16.70;99.90;;;;;;9182381;19;20041;-73
2022/06/27 08:21:25;;;;;;;8.48;6.53;;;16.70;99.90;;;;;;9179023;19;20418;-72
2022/06/27 08:24:29;;;;;;;10.38;6.88;;;16.80;99.90;;;;;;9180462;19;20018;-72
2022/06/27 08:27:35;;;;;;;8.88;7.13;;;16.70;99.90;;;;;;9179327;19;20011;-72
2022/06/27 08:30:39;;;;;;;8.75;7.15;;;17.00;99.90;;;;;;9178856;19;20098;-72
2022/06/27 08:33:46;;;;;;;9.15;6.78;;;16.80;99.90;;;;;;9174878;19;20096;-72
2022/06/27 08:36:53;;;;;;;9.02;5.95;;;16.90;99.90;;;;;;9177381;19;20014;-72
2022/06/27 08:39:58;;;;;;;7.45;6.13;;;16.90;99.90;;;;;;9176988;19;20125;-72
2022/06/27 08:43:03;;;;;;;9.38;6.90;;;16.80;99.90;;;;;;9176191;19;20011;-72
2022/06/27 08:46:08;;;;;;;8.77;6.18;;;16.80;99.90;;;;;;9177524;19;20011;-72
2022/06/27 08:49:16;;;;;;;7.57;6.43;;;17.00;99.90;;;;;;9180211;19;20009;-72
2022/06/27 08:52:23;;;;;;;7.05;6.03;;;17.10;99.90;;;;;;9179771;19;20014;-72
2022/06/27 08:55:27;;;;;;;;;;;17.00;99.90;;;;;;9176993;19;20014;-72
2022/06/27 08:58:31;;;;;;;7.32;5.53;;;17.00;99.90;;;;;;9179269;19;20262;-72
2022/06/27 09:01:35;;;;;;;7.13;6.05;;;17.00;99.90;;;;;;9178134;19;20017;-72
2022/06/27 09:05:02;;;;;;;6.43;5.75;;;17.00;99.90;;;;;;9176030;19;20018;-71
2022/06/27 09:08:10;;;;;;;8.73;6.75;;;17.10;99.90;;;;;;9177639;19;20178;-72
2022/06/27 09:11:29;;;;;;;8.23;6.65;;;17.00;99.90;;;;;;9173323;19;20362;-72
2022/06/27 09:14:39;;;;;;;7.75;6.13;;;17.00;99.90;;;;;;9175798;19;20026;-72
2022/06/27 09:17:43;;;;;;;7.60;6.10;;;17.20;99.90;;;;;;9177289;19;20011;-72
2022/06/27 09:20:50;;;;;;;7.28;6.20;;;17.20;99.90;;;;;;9184146;19;20018;-72
2022/06/27 09:24:00;;;;;;;7.93;6.28;;;17.10;99.90;;;;;;9190408;19;20014;-72
2022/06/27 09:27:06;;;;;;;7.68;6.40;;;17.00;99.90;;;;;;9182280;19;20448;-72
2022/06/27 09:30:26;;;;;;;7.90;6.07;;;17.10;99.90;;;;;;9183986;19;20394;-73
2022/06/27 09:33:31;;;;;;;8.48;6.65;;;17.00;99.90;;;;;;9186154;19;20022;-72
2022/06/27 09:36:37;;;;;;;8.18;6.50;;;17.10;99.90;;;;;;9188121;19;20471;-73
2022/06/27 09:39:45;;;;;;;8.27;6.05;;;17.10;99.90;;;;;;9183175;19;20017;-73
2022/06/27 09:42:50;;;;;;;8.13;6.50;;;17.20;99.90;;;;;;9181847;19;20018;-72
2022/06/27 09:45:56;;;;;;;9.98;6.18;;;17.10;99.90;;;;;;9185775;19;20070;-72
2022/06/27 09:49:00;;;;;;;8.40;6.70;;;16.50;99.90;;;;;;9185878;19;20309;-72
2022/06/27 09:52:08;;;;;;;8.50;6.15;;;17.10;99.90;;;;;;9182050;19;20030;-73
2022/06/27 09:55:18;;;;;;;8.85;6.80;;;17.10;99.90;;;;;;9183131;19;20363;-72
2022/06/27 09:58:23;;;;;;;7.70;6.47;;;17.10;99.90;;;;;;9183539;19;20011;-73
2022/06/27 10:01:27;;;;;;;8.30;6.93;;;16.90;99.90;;;;;;9183127;19;20031;-72
2022/06/27 10:04:32;;;;;;;8.05;6.13;;;16.60;99.90;;;;;;9177117;19;20022;-73
2022/06/27 10:07:38;;;;;;;8.48;6.75;;;16.70;99.90;;;;;;9182310;19;20018;-73
2022/06/27 10:11:12;;;;;;;7.70;6.45;;;17.00;99.90;;;;;;9186964;19;20055;-71
2022/06/27 10:14:26;;;;;;;7.90;7.03;;;17.00;99.90;;;;;;9183615;19;20018;-72
2022/06/27 10:17:32;;;;;;;8.48;7.18;;;16.80;99.90;;;;;;9181257;19;20459;-69
2022/06/27 10:20:39;;;;;;;9.70;7.20;;;17.00;99.90;;;;;;9185237;19;20362;-69
2022/06/27 10:23:47;;;;;;;8.68;6.70;;;16.90;99.90;;;;;;9184283;19;20323;-69
2022/06/27 10:26:55;;;;;;;7.90;5.97;;;17.20;99.90;;;;;;9180848;19;20030;-70
2022/06/27 10:30:00;;;;;;;8.07;6.40;;;16.90;99.90;;;;;;9184357;19;20137;-70
2022/06/27 10:33:23;;;;;;;8.88;6.28;;;16.90;99.90;;;;;;9177129;19;20042;-69
2022/06/27 10:36:27;;;;;;;9.68;7.43;;;17.00;99.90;;;;;;9181768;19;20060;-69
2022/06/27 10:39:32;;;;;;;9.82;7.47;;;17.30;99.90;;;;;;9183489;19;20052;-69
2022/06/27 10:42:52;;;;;;;6.38;4.88;;;17.40;99.90;;;;;;9180794;19;20345;-69
2022/06/27 10:45:56;;;;;;;6.70;5.43;;;17.30;99.90;;;;;;9180885;19;20060;-71
2022/06/27 10:49:01;;;;;;;7.30;5.32;;;17.40;99.90;;;;;;9181222;19;20011;-72
2022/06/27 10:52:35;;;;;;;4.68;4.00;;;17.70;99.90;;;;;;9179760;19;20014;-69
2022/06/27 10:55:40;;;;;;;4.40;3.90;;;17.50;99.90;;;;;;9180168;19;20018;-71
2022/06/27 10:58:48;;;;;;;5.00;3.90;;;17.60;99.90;;;;;;9179522;19;20022;-72
2022/06/27 11:02:13;;;;;;;4.50;3.55;;;17.70;99.90;;;;;;9176487;19;20018;-70
2022/06/27 11:05:16;;;;;;;4.28;3.45;;;17.60;99.90;;;;;;9180128;19;20007;-72
2022/06/27 11:08:22;;;;;;;5.75;4.10;;;17.50;99.90;;;;;;9179164;19;20375;-72
2022/06/27 11:11:27;;;;;;;5.43;3.72;;;17.70;99.90;;;;;;9182307;19;20051;-73
2022/06/27 11:14:44;;;;;;;5.70;3.40;;;17.70;99.90;;;;;;9177446;19;20025;-72
2022/06/27 11:17:48;;;;;;;;;;;17.70;99.90;;;;;;9181489;19;20420;-73
2022/06/27 11:20:52;;;;;;;7.38;4.10;;;17.60;99.90;;;;;;9181156;19;19931;-72
2022/06/27 11:23:58;;;;;;;6.97;3.38;;;17.50;99.90;;;;;;9177903;19;20018;-73
2022/06/27 11:27:02;;;;;;;7.57;4.20;;;17.50;99.90;;;;;;9175634;19;20044;-71
2022/06/27 11:33:29;;;;;;;5.47;3.10;;;17.60;99.90;;;;;;9180741;19;20471;-70
2022/06/27 11:36:33;;;;;;;5.20;3.50;;;17.40;99.90;;;;;;9179175;19;20341;-70
2022/06/27 11:39:37;;;;;;;5.03;3.38;;;17.60;99.90;;;;;;9180935;19;20022;-71
2022/06/27 11:42:44;;;;;;;5.13;4.05;;;17.40;99.90;;;;;;9169815;19;20014;-70
2022/06/27 11:45:50;;;;;;;11.15;4.88;;;17.50;99.90;;;;;;9180824;19;20017;-71
2022/06/27 11:48:57;;;;;;;5.13;3.88;;;17.60;99.90;;;;;;9175811;19;20018;-70
2022/06/27 11:52:02;;;;;;;5.80;3.85;;;17.60;99.90;;;;;;9181917;19;20546;-70
2022/06/27 11:55:12;;;;;;;5.10;3.88;;;17.80;99.90;;;;;;9182490;19;20022;-70
2022/06/27 11:58:17;;;;;;;5.97;4.30;;;17.70;99.90;;;;;;9179692;19;20417;-71
2022/06/27 12:01:23;;;;;;;5.13;4.07;;;17.90;99.90;;;;;;9181100;19;20412;-70
2022/06/27 12:04:31;;;;;;;5.22;4.25;;;17.80;99.90;;;;;;9182157;19;20026;-70
2022/06/27 12:07:50;;;;;;;5.20;4.30;;;18.00;99.90;;;;;;9179731;19;20025;-70
2022/06/27 12:14:10;;;;;;;5.00;4.07;;;18.10;99.90;;;;;;9181423;19;20026;-70
2022/06/27 12:17:18;;;;;;;5.97;4.65;;;18.20;99.90;;;;;;9181032;19;20097;-70
2022/06/27 12:20:22;;;;;;;6.07;4.32;;;18.10;99.90;;;;;;9181219;19;20048;-70
2022/06/27 12:23:26;;;;;;;7.97;4.80;;;18.20;99.90;;;;;;9179847;19;20475;-70
2022/06/27 12:26:29;;;;;;;5.10;4.22;;;18.00;99.90;;;;;;9181908;19;20133;-70
2022/06/27 12:29:33;;;;;;;7.63;5.20;;;17.80;99.90;;;;;;9181480;19;20348;-70
2022/06/27 12:32:40;;;;;;;6.68;4.63;;;18.00;99.90;;;;;;9179725;19;20007;-70
2022/06/27 12:35:44;;;;;;;6.13;4.40;;;18.00;99.90;;;;;;9178530;19;20021;-70
2022/06/27 12:38:48;;;;;;;6.10;4.30;;;18.00;99.90;;;;;;9181112;19;20442;-70
2022/06/27 12:41:53;;;;;;;7.00;5.00;;;17.90;99.90;;;;;;9178550;19;20524;-70
2022/06/27 12:44:57;;;;;;;7.35;4.95;;;18.00;99.90;;;;;;9176178;19;20091;-70
2022/06/27 12:48:05;;;;;;;8.38;5.22;;;17.80;99.90;;;;;;9178298;19;20027;-70
2022/06/27 12:51:09;;;;;;;8.27;5.82;;;17.90;99.90;;;;;;9178985;19;20018;-70
2022/06/27 12:54:14;;;;;;;8.00;5.47;;;17.80;99.90;;;;;;9181318;19;20056;-71
2022/06/27 12:57:18;;;;;;;7.95;5.93;;;17.90;99.90;;;;;;9188974;19;20021;-71
2022/06/27 13:00:22;;;;;;;7.25;5.43;;;17.70;99.90;;;;;;9186594;19;20479;-71
2022/06/27 13:03:29;;;;;;;5.25;4.10;;;17.70;99.90;;;;;;9189042;19;20033;-70
2022/06/27 13:06:33;;;;;;;6.28;4.15;;;17.60;99.90;;;;;;9183344;19;20018;-70
2022/06/27 13:09:39;;;;;;;8.25;4.07;;;17.80;99.90;;;;;;9183946;19;20018;-70
2022/06/27 13:12:43;;;;;;;4.00;3.08;;;17.60;99.90;;;;;;9188472;19;20014;-70
2022/06/27 13:15:46;;;;;;;4.57;3.22;;;17.60;99.90;;;;;;9187368;19;20013;-71
2022/06/27 13:18:53;;;;;;;5.32;3.10;;;17.70;99.90;;;;;;9183588;19;20475;-71
2022/06/27 13:21:57;;;;;;;4.15;3.10;;;17.80;99.90;;;;;;9186389;19;20499;-70
2022/06/27 13:25:01;;;;;;;4.05;3.20;;;17.80;99.90;;;;;;9184043;19;20019;-70
2022/06/27 13:28:05;;;;;;;5.40;3.63;;;17.70;99.90;;;;;;9185170;19;20371;-70
2022/06/27 13:31:09;;;;;;;4.43;3.40;;;17.60;99.90;;;;;;9186265;19;20056;-70
2022/06/27 13:34:16;;;;;;;5.35;3.92;;;17.80;99.90;;;;;;9186537;19;20386;-70
2022/06/27 13:37:20;;;;;;;5.88;3.70;;;17.50;99.90;;;;;;9186331;19;20052;-70
2022/06/27 13:40:23;;;;;;;5.43;3.97;;;17.70;99.90;;;;;;9186667;19;20018;-70
2022/06/27 13:43:28;;;;;;;5.00;3.65;;;17.60;99.90;;;;;;9184911;19;20006;-71
2022/06/27 13:46:32;;;;;;;6.18;3.75;;;17.60;99.90;;;;;;9184517;19;20384;-71
2022/06/27 13:49:39;;;;;;;4.72;3.88;;;17.70;99.90;;;;;;9180360;19;20077;-71
2022/06/27 13:52:42;;;;;;;4.53;3.72;;;17.70;99.90;;;;;;9186768;19;20463;-70
2022/06/27 13:55:46;;;;;;;4.20;2.85;;;17.90;99.90;;;;;;9186291;19;20079;-71
2022/06/27 13:58:50;;;;;;;3.95;2.58;;;17.60;99.90;;;;;;9186627;19;20036;-71
2022/06/27 14:01:54;;;;;;;4.25;2.35;;;17.60;99.90;;;;;;9184458;19;20029;-70
2022/06/27 14:05:02;;;;;;;3.20;2.30;;;17.60;99.90;;;;;;9182231;19;20019;-71
2022/06/27 14:08:06;;;;;;;4.05;2.35;;;17.60;99.90;;;;;;9182394;19;20360;-71
2022/06/27 14:11:10;;;;;;;3.10;2.38;;;17.40;99.90;;;;;;9181793;19;20502;-71
2022/06/27 14:14:14;;;;;;;2.90;2.13;;;17.60;99.90;;;;;;9184314;19;20465;-71
2022/06/27 14:17:18;;;;;;;3.05;2.25;;;17.60;99.90;;;;;;9181821;19;20014;-70
2022/06/27 14:20:25;;;;;;;8.50;2.40;;;17.50;99.90;;;;;;9184229;19;20011;-70
2022/06/27 14:23:29;;;;;;;5.60;2.60;;;17.50;99.90;;;;;;9186035;19;20029;-70
2022/06/27 14:26:34;;;;;;;3.80;2.50;;;17.90;99.90;;;;;;9181949;19;20493;-71
2022/06/27 14:29:38;;;;;;;2.42;1.98;;;17.40;99.90;;;;;;9182038;19;20018;-70
2022/06/27 14:32:41;;;;;;;3.25;2.42;;;17.30;99.90;;;;;;9183713;19;20041;-70
2022/06/27 14:35:49;;;;;;;3.90;2.35;;;17.20;99.90;;;;;;9181910;19;20015;-70
2022/06/27 14:38:53;;;;;;;4.43;2.72;;;17.20;99.90;;;;;;9180938;19;20018;-71
2022/06/27 14:41:56;;;;;;;4.55;2.72;;;17.20;99.90;;;;;;9177882;19;20014;-70
2022/06/27 14:45:01;;;;;;;3.33;2.65;;;17.30;99.90;;;;;;9181640;19;20018;-79
2022/06/27 14:48:05;;;;;;;4.68;2.72;;;17.10;99.90;;;;;;9178618;19;20044;-72
2022/06/27 14:51:12;;;;;;;5.35;2.70;;;17.10;99.90;;;;;;9184173;19;20141;-73
2022/06/27 14:54:16;;;;;;;3.03;2.38;;;17.10;99.90;;;;;;9179582;19;20037;-71
2022/06/27 14:57:20;;;;;;;5.82;2.90;;;17.30;99.90;;;;;;9185387;19;20088;-73
2022/06/27 15:00:24;;;;;;;4.28;2.97;;;17.20;99.90;;;;;;9179165;19;20039;-72
2022/06/27 15:03:31;;;;;;;2.90;2.60;;;17.20;99.90;;;;;;9182611;19;20055;-73
2022/06/27 15:06:37;;;;;;;3.30;2.33;;;17.30;99.90;;;;;;9181669;19;20014;-71
2022/06/27 15:09:41;;;;;;;4.72;2.55;;;17.20;99.90;;;;;;9175663;19;20018;-73
2022/06/27 15:12:45;;;;;;;6.18;3.03;;;17.50;99.90;;;;;;9181319;19;20026;-73
2022/06/27 15:15:49;;;;;;;3.58;2.40;;;17.40;99.90;;;;;;9182604;19;20074;-75
2022/06/27 15:18:53;;;;;;;3.90;2.47;;;17.40;99.90;;;;;;9180538;19;20014;-74
2022/06/27 15:21:59;;;;;;;4.38;2.97;;;17.70;99.90;;;;;;9178123;19;20361;-74
2022/06/27 15:25:04;;;;;;;5.93;3.00;;;17.70;99.90;;;;;;9178328;19;20482;-75
2022/06/27 15:28:08;;;;;;;4.30;2.80;;;18.00;99.90;;;;;;9177916;19;20014;-74
2022/06/27 15:31:12;;;;;;;5.20;3.00;;;18.00;99.90;;;;;;9179999;19;20094;-75
2022/06/27 15:34:17;;;;;;;3.42;2.58;;;18.10;99.90;;;;;;9182056;19;20018;-72
2022/06/27 15:37:23;;;;;;;4.35;2.85;;;18.20;99.90;;;;;;9177953;19;20118;-73
2022/06/27 15:40:27;;;;;;;3.63;2.78;;;18.30;99.90;;;;;;9180337;19;20063;-72
2022/06/27 15:43:32;;;;;;;4.60;2.78;;;18.60;99.90;;;;;;9179376;19;20014;-75
2022/06/27 15:46:36;;;;;;;5.30;2.75;;;18.50;99.90;;;;;;9179263;19;20006;-76
2022/06/27 15:49:40;;;;;;;4.07;2.75;;;18.60;99.90;;;;;;9179667;19;20018;-76
2022/06/27 15:52:47;;;;;;;4.43;2.85;;;18.50;99.90;;;;;;9178433;19;20018;-77
2022/06/27 15:55:51;;;;;;;;;;;18.60;99.90;;;;;;9178505;19;20482;-70
2022/06/27 15:58:55;;;;;;;3.30;2.13;;;18.60;99.90;;;;;;9181536;19;19929;-76
2022/06/27 16:01:59;;;;;;;4.53;2.50;;;18.30;99.90;;;;;;9176653;19;20086;-76
2022/06/27 16:05:03;;;;;;;4.05;2.30;;;18.60;99.90;;;;;;9182735;19;20013;-76
2022/06/27 16:08:10;;;;;;;2.42;1.92;;;18.60;99.90;;;;;;9178334;19;20025;-77
2022/06/27 16:11:14;;;;;;;4.88;2.58;;;18.50;99.90;;;;;;9180992;19;20014;-77
2022/06/27 16:14:18;;;;;;;3.92;2.25;;;18.40;99.90;;;;;;9178177;19;20018;-73
2022/06/27 16:17:22;;;;;;;3.67;2.33;;;18.30;99.90;;;;;;9181486;19;20020;-70
2022/06/27 16:20:26;;;;;;;3.80;2.20;;;18.30;99.90;;;;;;9177809;19;20015;-70